Applegate, Michigan
Current Conditions -  °F | °C
As of 9:00 AM on Wednesday 26 Nov 2014 (Local Time) from CYZR Reporting Station
Overcast Overcast  
Wind Chill: 30°   Ceiling: 3100
Heat Index: 30°   Visibility: 9mi
Dew Point: 23°   Wind: 3mph
Humidity: 75%   Direction: 280°W
Pressure: 30.19"   Gusts: NA
Location:  43.36°N, 82.64°W
Report Text: CYZR 261400Z AUTO 28003KT 9SM OVC031 M01/M05 A3019 RMK PRESFR SLP230
Loading
Personal Weather Stations






























Interactive Weather Map New forecast layout! Learn more

10-Day Weather Forecast

Advertisements
Track Severe Weather on mobile